Lykens, PA (17048)

2:46 AM EDT on July 29, 2016 (GMT -0400)
Gratz, PA | | Change Station

Elev 817 ft 40.61 °N, 76.72 °W | Updated 10 seconds ago

Light Rain
Light Rain
71.1 °F
Feels Like 71.1 °F
N
0.0
Wind Variable Wind from North
Gusts 0.0 mph

Today
High -- | Low -- °F
--% Chance of Precip.
Yesterday
High -- | Low -- °F
Precip. -- in
Pressure 29.88 in
Visibility 7.0 miles
Clouds Overcast 6000 ft
Dew Point 70 °F
Humidity 96%
Rainfall 0.05 in
Snow Depth Not available.
6:01 AM 8:24 PM
Waning Crescent, 24% visible
METAR KMUI 290558Z AUTO 00000KT 7SM -RA OVC060 22/22 A2988 RMK AO2 RAE01DZB01E08RAB08E18DZB18E20RAB20 SLP117 P0002 60006 T02170217 10221 20214 56002
Pressure 29.88 in
Visibility 7.0 miles
Clouds Overcast 6000 ft
Dew Point 70 °F
Humidity 96%
Rainfall 0.05 in
Snow Depth Not available.
6:01 AM 8:24 PM
Waning Crescent, 24% visible
METAR KMUI 290558Z AUTO 00000KT 7SM -RA OVC060 22/22 A2988 RMK AO2 RAE01DZB01E08RAB08E18DZB18E20RAB20 SLP117 P0002 60006 T02170217 10221 20214 56002

10-Day Weather Forecast

Almanac

Astronomy

Jul. 29, 2016 Rise Set
Actual Time
Civil Twilight
Nautical Twilight
Astronomical Twilight
Moon
Length of Visible Light
Length of Day
Tomorrow will be .
, % of the Moon is Illuminated

Today's Extremes

State Highs State Lows

Community

WunderPhotos

Upload Photos

1,928,299 photos uploaded!

WunderBlog® & News

Nearby

Air Quality

  Air Quality AQ Index Pollutant
Not available.

Snow Depth

Station Depth Elevation

Earthquake Activity

City Distance Mag. Time & Date
Minimum magnitude displayed is 2.5.

Coastal Water Temperatures

Place Temperature

Stations

Nearby Weather Stations

Station Location Temp. Windchill Dew Point Humidity Wind Precip. Elev Updated Type
                   

Watches & Warnings

There are currently no watches in effect.